sensor_id;sensor_type;location;lat;lon;timestamp;temperature;humidity
8662;DHT22;29684;47.722;9.388;2022-08-14T00:01:09;16.40;99.90
8662;DHT22;29684;47.722;9.388;2022-08-14T00:03:53;16.40;99.90
8662;DHT22;29684;47.722;9.388;2022-08-14T00:06:37;16.30;99.90
8662;DHT22;29684;47.722;9.388;2022-08-14T00:09:21;16.20;99.90
8662;DHT22;29684;47.722;9.388;2022-08-14T00:12:06;15.80;99.90
8662;DHT22;29684;47.722;9.388;2022-08-14T00:14:52;15.70;99.90
8662;DHT22;29684;47.722;9.388;2022-08-14T00:17:37;15.70;99.90
8662;DHT22;29684;47.722;9.388;2022-08-14T00:20:25;15.60;99.90
8662;DHT22;29684;47.722;9.388;2022-08-14T00:23:11;15.50;99.90
8662;DHT22;29684;47.722;9.388;2022-08-14T00:25:55;15.80;99.90
8662;DHT22;29684;47.722;9.388;2022-08-14T00:28:40;16.00;99.90
8662;DHT22;29684;47.722;9.388;2022-08-14T00:31:24;16.00;99.90
8662;DHT22;29684;47.722;9.388;2022-08-14T00:34:09;16.00;99.90
8662;DHT22;29684;47.722;9.388;2022-08-14T00:36:54;15.90;99.90
8662;DHT22;29684;47.722;9.388;2022-08-14T00:39:38;16.00;99.90
8662;DHT22;29684;47.722;9.388;2022-08-14T00:42:24;15.70;99.90
8662;DHT22;29684;47.722;9.388;2022-08-14T00:45:12;15.60;99.90
8662;DHT22;29684;47.722;9.388;2022-08-14T00:47:57;15.80;99.90
8662;DHT22;29684;47.722;9.388;2022-08-14T00:50:41;15.90;99.90
8662;DHT22;29684;47.722;9.388;2022-08-14T00:53:26;16.10;99.90
8662;DHT22;29684;47.722;9.388;2022-08-14T00:56:10;16.20;99.90
8662;DHT22;29684;47.722;9.388;2022-08-14T00:58:55;16.20;99.90
8662;DHT22;29684;47.722;9.388;2022-08-14T01:01:44;16.20;99.90
8662;DHT22;29684;47.722;9.388;2022-08-14T01:04:29;16.00;99.90
8662;DHT22;29684;47.722;9.388;2022-08-14T01:07:17;16.00;99.90
8662;DHT22;29684;47.722;9.388;2022-08-14T01:10:05;15.70;99.90
8662;DHT22;29684;47.722;9.388;2022-08-14T01:12:49;15.30;99.90
8662;DHT22;29684;47.722;9.388;2022-08-14T01:15:34;15.40;99.90
8662;DHT22;29684;47.722;9.388;2022-08-14T01:18:20;15.00;99.90
8662;DHT22;29684;47.722;9.388;2022-08-14T01:21:35;14.90;99.90
8662;DHT22;29684;47.722;9.388;2022-08-14T01:24:23;14.70;99.90
8662;DHT22;29684;47.722;9.388;2022-08-14T01:27:16;15.00;99.90
8662;DHT22;29684;47.722;9.388;2022-08-14T01:30:01;14.80;99.90
8662;DHT22;29684;47.722;9.388;2022-08-14T01:32:46;14.70;99.90
8662;DHT22;29684;47.722;9.388;2022-08-14T01:35:31;14.80;99.90
8662;DHT22;29684;47.722;9.388;2022-08-14T01:38:15;14.30;99.90
8662;DHT22;29684;47.722;9.388;2022-08-14T01:41:01;15.10;99.90
8662;DHT22;29684;47.722;9.388;2022-08-14T01:43:50;15.00;99.90
8662;DHT22;29684;47.722;9.388;2022-08-14T01:46:39;15.00;99.90
8662;DHT22;29684;47.722;9.388;2022-08-14T01:49:25;15.00;99.90
8662;DHT22;29684;47.722;9.388;2022-08-14T01:52:09;15.20;99.90
8662;DHT22;29684;47.722;9.388;2022-08-14T01:54:54;15.00;99.90
8662;DHT22;29684;47.722;9.388;2022-08-14T01:57:43;15.00;99.90
8662;DHT22;29684;47.722;9.388;2022-08-14T02:00:28;14.90;99.90
8662;DHT22;29684;47.722;9.388;2022-08-14T02:03:12;14.80;99.90
8662;DHT22;29684;47.722;9.388;2022-08-14T02:05:58;14.90;99.90
8662;DHT22;29684;47.722;9.388;2022-08-14T02:08:42;15.10;99.90
8662;DHT22;29684;47.722;9.388;2022-08-14T02:11:27;15.00;99.90
8662;DHT22;29684;47.722;9.388;2022-08-14T02:14:12;14.80;99.90
8662;DHT22;29684;47.722;9.388;2022-08-14T02:16:57;14.80;99.90
8662;DHT22;29684;47.722;9.388;2022-08-14T02:19:40;14.90;99.90
8662;DHT22;29684;47.722;9.388;2022-08-14T02:22:26;14.90;99.90
8662;DHT22;29684;47.722;9.388;2022-08-14T02:25:10;14.80;99.90
8662;DHT22;29684;47.722;9.388;2022-08-14T02:27:54;14.80;99.90
8662;DHT22;29684;47.722;9.388;2022-08-14T02:30:39;14.70;99.90
8662;DHT22;29684;47.722;9.388;2022-08-14T02:33:23;14.50;99.90
8662;DHT22;29684;47.722;9.388;2022-08-14T02:36:08;14.80;99.90
8662;DHT22;29684;47.722;9.388;2022-08-14T02:38:53;14.90;99.90
8662;DHT22;29684;47.722;9.388;2022-08-14T02:41:38;14.90;99.90
8662;DHT22;29684;47.722;9.388;2022-08-14T02:44:22;14.90;99.90
8662;DHT22;29684;47.722;9.388;2022-08-14T02:47:07;14.80;99.90
8662;DHT22;29684;47.722;9.388;2022-08-14T02:49:51;14.70;99.90
8662;DHT22;29684;47.722;9.388;2022-08-14T02:52:37;14.60;99.90
8662;DHT22;29684;47.722;9.388;2022-08-14T02:55:21;14.50;99.90
8662;DHT22;29684;47.722;9.388;2022-08-14T02:58:06;14.30;99.90
8662;DHT22;29684;47.722;9.388;2022-08-14T03:00:51;13.80;99.90
8662;DHT22;29684;47.722;9.388;2022-08-14T03:03:36;13.70;99.90
8662;DHT22;29684;47.722;9.388;2022-08-14T03:06:20;13.60;99.90
8662;DHT22;29684;47.722;9.388;2022-08-14T03:09:09;13.40;99.90
8662;DHT22;29684;47.722;9.388;2022-08-14T03:11:54;13.20;99.90
8662;DHT22;29684;47.722;9.388;2022-08-14T03:14:38;13.10;99.90
8662;DHT22;29684;47.722;9.388;2022-08-14T03:17:28;13.00;99.90
8662;DHT22;29684;47.722;9.388;2022-08-14T03:20:14;13.00;99.90
8662;DHT22;29684;47.722;9.388;2022-08-14T03:22:58;12.90;99.90
8662;DHT22;29684;47.722;9.388;2022-08-14T03:25:44;13.10;99.90
8662;DHT22;29684;47.722;9.388;2022-08-14T03:28:29;13.00;99.90
8662;DHT22;29684;47.722;9.388;2022-08-14T03:31:14;13.00;99.90
8662;DHT22;29684;47.722;9.388;2022-08-14T03:33:59;13.10;99.90
8662;DHT22;29684;47.722;9.388;2022-08-14T03:36:43;13.40;99.90
8662;DHT22;29684;47.722;9.388;2022-08-14T03:39:28;13.50;99.90
8662;DHT22;29684;47.722;9.388;2022-08-14T03:42:12;13.60;99.90
8662;DHT22;29684;47.722;9.388;2022-08-14T03:44:58;13.60;99.90
8662;DHT22;29684;47.722;9.388;2022-08-14T03:47:43;13.50;99.90
8662;DHT22;29684;47.722;9.388;2022-08-14T03:50:28;13.80;99.90
8662;DHT22;29684;47.722;9.388;2022-08-14T03:53:14;13.80;99.90
8662;DHT22;29684;47.722;9.388;2022-08-14T03:55:58;13.80;99.90
8662;DHT22;29684;47.722;9.388;2022-08-14T03:58:47;14.00;99.90
8662;DHT22;29684;47.722;9.388;2022-08-14T04:01:32;14.00;99.90
8662;DHT22;29684;47.722;9.388;2022-08-14T04:04:16;13.80;99.90
8662;DHT22;29684;47.722;9.388;2022-08-14T04:07:01;13.50;99.90
8662;DHT22;29684;47.722;9.388;2022-08-14T04:09:46;13.10;99.90
8662;DHT22;29684;47.722;9.388;2022-08-14T04:12:30;12.90;99.90
8662;DHT22;29684;47.722;9.388;2022-08-14T04:15:15;12.80;99.90
8662;DHT22;29684;47.722;9.388;2022-08-14T04:18:04;12.70;99.90
8662;DHT22;29684;47.722;9.388;2022-08-14T04:20:51;12.70;99.90
8662;DHT22;29684;47.722;9.388;2022-08-14T04:23:36;12.90;99.90
8662;DHT22;29684;47.722;9.388;2022-08-14T04:26:20;13.10;99.90
8662;DHT22;29684;47.722;9.388;2022-08-14T04:29:05;13.40;99.90
8662;DHT22;29684;47.722;9.388;2022-08-14T04:31:50;13.40;99.90
8662;DHT22;29684;47.722;9.388;2022-08-14T04:34:37;13.30;99.90
8662;DHT22;29684;47.722;9.388;2022-08-14T04:37:25;13.30;99.90
8662;DHT22;29684;47.722;9.388;2022-08-14T04:40:28;13.40;99.90
8662;DHT22;29684;47.722;9.388;2022-08-14T04:43:31;13.40;99.90
8662;DHT22;29684;47.722;9.388;2022-08-14T04:46:20;13.80;99.90
8662;DHT22;29684;47.722;9.388;2022-08-14T04:49:05;13.90;99.90
8662;DHT22;29684;47.722;9.388;2022-08-14T04:51:49;14.00;99.90
8662;DHT22;29684;47.722;9.388;2022-08-14T04:54:33;14.10;99.90
8662;DHT22;29684;47.722;9.388;2022-08-14T04:57:17;13.90;99.90
8662;DHT22;29684;47.722;9.388;2022-08-14T05:00:01;13.60;99.90
8662;DHT22;29684;47.722;9.388;2022-08-14T05:02:46;13.60;99.90
8662;DHT22;29684;47.722;9.388;2022-08-14T05:05:30;13.60;99.90
8662;DHT22;29684;47.722;9.388;2022-08-14T05:08:16;14.00;99.90
8662;DHT22;29684;47.722;9.388;2022-08-14T05:11:02;13.90;99.90
8662;DHT22;29684;47.722;9.388;2022-08-14T05:13:47;13.50;99.90
8662;DHT22;29684;47.722;9.388;2022-08-14T05:16:32;13.30;99.90
8662;DHT22;29684;47.722;9.388;2022-08-14T05:19:17;13.00;99.90
8662;DHT22;29684;47.722;9.388;2022-08-14T05:22:01;13.00;99.90
8662;DHT22;29684;47.722;9.388;2022-08-14T05:24:46;12.80;99.90
8662;DHT22;29684;47.722;9.388;2022-08-14T05:27:32;13.00;99.90
8662;DHT22;29684;47.722;9.388;2022-08-14T05:30:16;13.00;99.90
8662;DHT22;29684;47.722;9.388;2022-08-14T05:33:01;13.00;99.90
8662;DHT22;29684;47.722;9.388;2022-08-14T05:35:47;13.10;99.90
8662;DHT22;29684;47.722;9.388;2022-08-14T05:38:37;13.30;99.90
8662;DHT22;29684;47.722;9.388;2022-08-14T05:41:21;13.30;99.90
8662;DHT22;29684;47.722;9.388;2022-08-14T05:44:06;13.40;99.90
8662;DHT22;29684;47.722;9.388;2022-08-14T05:46:50;13.60;99.90
8662;DHT22;29684;47.722;9.388;2022-08-14T05:49:34;13.70;99.90
8662;DHT22;29684;47.722;9.388;2022-08-14T05:52:18;14.20;99.90
8662;DHT22;29684;47.722;9.388;2022-08-14T05:55:04;14.30;99.90
8662;DHT22;29684;47.722;9.388;2022-08-14T05:57:54;14.50;99.90
8662;DHT22;29684;47.722;9.388;2022-08-14T06:00:41;14.70;99.90
8662;DHT22;29684;47.722;9.388;2022-08-14T06:03:25;15.10;99.90
8662;DHT22;29684;47.722;9.388;2022-08-14T06:06:09;15.10;99.90
8662;DHT22;29684;47.722;9.388;2022-08-14T06:08:54;15.20;99.90
8662;DHT22;29684;47.722;9.388;2022-08-14T06:11:38;15.10;99.90
8662;DHT22;29684;47.722;9.388;2022-08-14T06:14:23;15.40;99.90
8662;DHT22;29684;47.722;9.388;2022-08-14T06:17:07;15.70;99.90
8662;DHT22;29684;47.722;9.388;2022-08-14T06:19:52;16.00;99.90
8662;DHT22;29684;47.722;9.388;2022-08-14T06:22:36;16.20;99.90
8662;DHT22;29684;47.722;9.388;2022-08-14T06:25:20;16.50;99.90
8662;DHT22;29684;47.722;9.388;2022-08-14T06:28:04;16.80;99.90
8662;DHT22;29684;47.722;9.388;2022-08-14T06:30:49;17.00;99.90
8662;DHT22;29684;47.722;9.388;2022-08-14T06:33:33;17.10;99.90
8662;DHT22;29684;47.722;9.388;2022-08-14T06:36:18;17.20;99.90
8662;DHT22;29684;47.722;9.388;2022-08-14T06:39:03;17.40;99.90
8662;DHT22;29684;47.722;9.388;2022-08-14T06:41:47;17.50;99.90
8662;DHT22;29684;47.722;9.388;2022-08-14T06:44:31;17.70;99.90
8662;DHT22;29684;47.722;9.388;2022-08-14T06:47:15;17.50;99.90
8662;DHT22;29684;47.722;9.388;2022-08-14T06:49:59;17.40;99.90
8662;DHT22;29684;47.722;9.388;2022-08-14T06:52:44;17.60;99.90
8662;DHT22;29684;47.722;9.388;2022-08-14T06:55:28;17.50;99.90
8662;DHT22;29684;47.722;9.388;2022-08-14T06:58:15;17.40;99.90
8662;DHT22;29684;47.722;9.388;2022-08-14T07:01:00;17.50;99.90
8662;DHT22;29684;47.722;9.388;2022-08-14T07:04:03;17.60;99.90
8662;DHT22;29684;47.722;9.388;2022-08-14T07:07:06;17.70;99.90
8662;DHT22;29684;47.722;9.388;2022-08-14T07:09:50;17.90;99.90
8662;DHT22;29684;47.722;9.388;2022-08-14T07:12:34;18.00;99.90
8662;DHT22;29684;47.722;9.388;2022-08-14T07:15:19;18.10;99.90
8662;DHT22;29684;47.722;9.388;2022-08-14T07:18:04;18.20;99.90
8662;DHT22;29684;47.722;9.388;2022-08-14T07:20:48;18.20;99.90
8662;DHT22;29684;47.722;9.388;2022-08-14T07:23:34;18.00;99.90
8662;DHT22;29684;47.722;9.388;2022-08-14T07:26:18;18.20;99.90
8662;DHT22;29684;47.722;9.388;2022-08-14T07:29:02;18.10;99.90
8662;DHT22;29684;47.722;9.388;2022-08-14T07:31:46;18.20;99.90
8662;DHT22;29684;47.722;9.388;2022-08-14T07:34:31;18.40;99.90
8662;DHT22;29684;47.722;9.388;2022-08-14T07:37:15;18.50;99.90
8662;DHT22;29684;47.722;9.388;2022-08-14T07:40:00;18.60;99.90
8662;DHT22;29684;47.722;9.388;2022-08-14T07:42:45;18.80;99.90
8662;DHT22;29684;47.722;9.388;2022-08-14T07:45:29;18.90;99.90
8662;DHT22;29684;47.722;9.388;2022-08-14T07:48:13;19.00;99.90
8662;DHT22;29684;47.722;9.388;2022-08-14T07:50:58;19.30;99.90
8662;DHT22;29684;47.722;9.388;2022-08-14T07:53:43;19.50;99.90
8662;DHT22;29684;47.722;9.388;2022-08-14T07:56:28;19.80;99.90
8662;DHT22;29684;47.722;9.388;2022-08-14T07:59:12;20.10;99.90
8662;DHT22;29684;47.722;9.388;2022-08-14T08:01:57;20.30;99.90
8662;DHT22;29684;47.722;9.388;2022-08-14T08:04:44;20.50;99.90
8662;DHT22;29684;47.722;9.388;2022-08-14T08:07:30;20.50;99.90
8662;DHT22;29684;47.722;9.388;2022-08-14T08:10:19;20.70;99.90
8662;DHT22;29684;47.722;9.388;2022-08-14T08:13:18;20.60;99.90
8662;DHT22;29684;47.722;9.388;2022-08-14T08:16:04;20.70;99.90
8662;DHT22;29684;47.722;9.388;2022-08-14T08:18:49;20.90;99.90
8662;DHT22;29684;47.722;9.388;2022-08-14T08:21:38;20.90;99.90
8662;DHT22;29684;47.722;9.388;2022-08-14T08:24:22;21.10;99.90
8662;DHT22;29684;47.722;9.388;2022-08-14T08:27:14;21.30;99.90
8662;DHT22;29684;47.722;9.388;2022-08-14T08:30:07;21.40;99.90
8662;DHT22;29684;47.722;9.388;2022-08-14T08:32:54;21.50;99.90
8662;DHT22;29684;47.722;9.388;2022-08-14T08:35:38;21.70;99.90
8662;DHT22;29684;47.722;9.388;2022-08-14T08:38:24;21.70;99.90
8662;DHT22;29684;47.722;9.388;2022-08-14T08:41:08;21.80;99.90
8662;DHT22;29684;47.722;9.388;2022-08-14T08:44:03;22.00;99.90
8662;DHT22;29684;47.722;9.388;2022-08-14T08:46:56;22.20;99.90
8662;DHT22;29684;47.722;9.388;2022-08-14T08:49:42;22.30;99.90
8662;DHT22;29684;47.722;9.388;2022-08-14T08:52:28;22.40;99.90
8662;DHT22;29684;47.722;9.388;2022-08-14T08:55:12;22.50;99.90
8662;DHT22;29684;47.722;9.388;2022-08-14T08:57:58;22.60;99.90
8662;DHT22;29684;47.722;9.388;2022-08-14T09:00:47;22.70;99.90
8662;DHT22;29684;47.722;9.388;2022-08-14T09:03:31;22.90;99.90
8662;DHT22;29684;47.722;9.388;2022-08-14T09:06:17;23.20;99.90
8662;DHT22;29684;47.722;9.388;2022-08-14T09:09:01;23.30;99.90
8662;DHT22;29684;47.722;9.388;2022-08-14T09:11:45;23.30;99.90
8662;DHT22;29684;47.722;9.388;2022-08-14T09:14:30;23.50;99.90
8662;DHT22;29684;47.722;9.388;2022-08-14T09:17:14;23.50;99.90
8662;DHT22;29684;47.722;9.388;2022-08-14T09:19:59;23.70;99.90
8662;DHT22;29684;47.722;9.388;2022-08-14T09:22:44;23.70;99.90
8662;DHT22;29684;47.722;9.388;2022-08-14T09:25:30;23.70;99.90
8662;DHT22;29684;47.722;9.388;2022-08-14T09:28:16;23.90;99.90
8662;DHT22;29684;47.722;9.388;2022-08-14T09:31:01;24.00;99.90
8662;DHT22;29684;47.722;9.388;2022-08-14T09:34:15;24.20;99.90
8662;DHT22;29684;47.722;9.388;2022-08-14T09:37:14;24.30;99.90
8662;DHT22;29684;47.722;9.388;2022-08-14T09:40:13;24.40;99.90
8662;DHT22;29684;47.722;9.388;2022-08-14T09:46:09;24.50;99.90
8662;DHT22;29684;47.722;9.388;2022-08-14T09:49:12;24.70;99.90
8662;DHT22;29684;47.722;9.388;2022-08-14T09:54:49;25.10;99.90
8662;DHT22;29684;47.722;9.388;2022-08-14T09:57:33;25.20;99.90
8662;DHT22;29684;47.722;9.388;2022-08-14T10:00:21;25.40;99.90
8662;DHT22;29684;47.722;9.388;2022-08-14T10:03:30;25.70;99.90
8662;DHT22;29684;47.722;9.388;2022-08-14T10:06:19;25.90;99.20
8662;DHT22;29684;47.722;9.388;2022-08-14T10:09:05;25.90;99.10
8662;DHT22;29684;47.722;9.388;2022-08-14T10:11:57;25.90;98.80
8662;DHT22;29684;47.722;9.388;2022-08-14T10:14:41;26.00;98.20
8662;DHT22;29684;47.722;9.388;2022-08-14T10:17:27;26.10;98.00
8662;DHT22;29684;47.722;9.388;2022-08-14T10:20:12;26.10;97.90
8662;DHT22;29684;47.722;9.388;2022-08-14T10:23:15;26.00;97.90
8662;DHT22;29684;47.722;9.388;2022-08-14T10:26:07;26.30;98.00
8662;DHT22;29684;47.722;9.388;2022-08-14T10:28:52;26.50;97.90
8662;DHT22;29684;47.722;9.388;2022-08-14T10:31:37;26.70;97.40
8662;DHT22;29684;47.722;9.388;2022-08-14T10:34:22;26.80;99.10
8662;DHT22;29684;47.722;9.388;2022-08-14T10:37:14;27.00;99.20
8662;DHT22;29684;47.722;9.388;2022-08-14T10:40:02;26.90;98.80
8662;DHT22;29684;47.722;9.388;2022-08-14T10:42:47;26.90;98.30
8662;DHT22;29684;47.722;9.388;2022-08-14T10:45:32;27.10;97.20
8662;DHT22;29684;47.722;9.388;2022-08-14T10:48:17;27.20;97.40
8662;DHT22;29684;47.722;9.388;2022-08-14T10:51:01;27.30;97.60
8662;DHT22;29684;47.722;9.388;2022-08-14T10:53:53;27.00;97.60
8662;DHT22;29684;47.722;9.388;2022-08-14T10:56:37;26.80;97.70
8662;DHT22;29684;47.722;9.388;2022-08-14T10:59:22;26.50;97.50
8662;DHT22;29684;47.722;9.388;2022-08-14T11:02:39;26.30;97.30
8662;DHT22;29684;47.722;9.388;2022-08-14T11:05:24;26.40;97.40
8662;DHT22;29684;47.722;9.388;2022-08-14T11:08:11;26.70;97.30
8662;DHT22;29684;47.722;9.388;2022-08-14T11:10:59;26.80;96.60
8662;DHT22;29684;47.722;9.388;2022-08-14T11:13:45;27.10;96.30
8662;DHT22;29684;47.722;9.388;2022-08-14T11:16:29;27.80;96.10
8662;DHT22;29684;47.722;9.388;2022-08-14T11:19:15;28.10;95.00
8662;DHT22;29684;47.722;9.388;2022-08-14T11:22:00;27.80;95.20
8662;DHT22;29684;47.722;9.388;2022-08-14T11:24:48;28.30;94.90
8662;DHT22;29684;47.722;9.388;2022-08-14T11:27:33;28.60;94.20
8662;DHT22;29684;47.722;9.388;2022-08-14T11:30:27;28.90;93.60
8662;DHT22;29684;47.722;9.388;2022-08-14T11:33:12;28.80;93.60
8662;DHT22;29684;47.722;9.388;2022-08-14T11:35:58;29.10;93.00
8662;DHT22;29684;47.722;9.388;2022-08-14T11:38:45;29.40;92.50
8662;DHT22;29684;47.722;9.388;2022-08-14T11:41:33;28.90;90.40
8662;DHT22;29684;47.722;9.388;2022-08-14T11:44:17;28.70;89.20
8662;DHT22;29684;47.722;9.388;2022-08-14T11:47:04;29.00;90.10
8662;DHT22;29684;47.722;9.388;2022-08-14T11:49:48;28.90;89.60
8662;DHT22;29684;47.722;9.388;2022-08-14T11:52:33;28.60;86.90
8662;DHT22;29684;47.722;9.388;2022-08-14T11:55:20;28.70;86.10
8662;DHT22;29684;47.722;9.388;2022-08-14T11:58:09;28.70;84.90
8662;DHT22;29684;47.722;9.388;2022-08-14T12:00:57;29.00;81.70
8662;DHT22;29684;47.722;9.388;2022-08-14T12:03:44;29.00;79.40
8662;DHT22;29684;47.722;9.388;2022-08-14T12:06:29;29.20;81.50
8662;DHT22;29684;47.722;9.388;2022-08-14T12:12:18;29.30;76.00
8662;DHT22;29684;47.722;9.388;2022-08-14T12:15:04;29.30;80.30
8662;DHT22;29684;47.722;9.388;2022-08-14T12:17:49;28.90;81.70
8662;DHT22;29684;47.722;9.388;2022-08-14T12:20:38;29.20;82.00
8662;DHT22;29684;47.722;9.388;2022-08-14T12:23:25;29.20;83.20
8662;DHT22;29684;47.722;9.388;2022-08-14T12:26:14;29.40;81.60
8662;DHT22;29684;47.722;9.388;2022-08-14T12:29:05;29.30;80.20
8662;DHT22;29684;47.722;9.388;2022-08-14T12:31:59;29.10;81.20
8662;DHT22;29684;47.722;9.388;2022-08-14T12:34:52;29.20;90.70
8662;DHT22;29684;47.722;9.388;2022-08-14T12:37:37;28.90;91.50
8662;DHT22;29684;47.722;9.388;2022-08-14T12:40:22;28.90;92.10
8662;DHT22;29684;47.722;9.388;2022-08-14T12:43:08;29.20;91.90
8662;DHT22;29684;47.722;9.388;2022-08-14T12:45:53;29.00;90.90
8662;DHT22;29684;47.722;9.388;2022-08-14T12:48:43;28.60;89.80
8662;DHT22;29684;47.722;9.388;2022-08-14T12:51:29;29.20;86.20
8662;DHT22;29684;47.722;9.388;2022-08-14T12:54:18;29.50;84.10
8662;DHT22;29684;47.722;9.388;2022-08-14T12:57:09;29.40;78.20
8662;DHT22;29684;47.722;9.388;2022-08-14T13:00:22;29.40;78.60
8662;DHT22;29684;47.722;9.388;2022-08-14T13:03:07;29.40;79.20
8662;DHT22;29684;47.722;9.388;2022-08-14T13:05:51;29.20;79.70
8662;DHT22;29684;47.722;9.388;2022-08-14T13:08:36;29.40;81.00
8662;DHT22;29684;47.722;9.388;2022-08-14T13:11:21;29.60;81.30
8662;DHT22;29684;47.722;9.388;2022-08-14T13:14:07;29.80;80.90
8662;DHT22;29684;47.722;9.388;2022-08-14T13:16:55;30.00;79.60
8662;DHT22;29684;47.722;9.388;2022-08-14T13:19:40;29.70;79.50
8662;DHT22;29684;47.722;9.388;2022-08-14T13:22:25;29.80;80.90
8662;DHT22;29684;47.722;9.388;2022-08-14T13:25:16;29.20;80.20
8662;DHT22;29684;47.722;9.388;2022-08-14T13:28:02;28.80;81.60
8662;DHT22;29684;47.722;9.388;2022-08-14T13:30:46;29.00;81.80
8662;DHT22;29684;47.722;9.388;2022-08-14T13:33:34;29.20;81.80
8662;DHT22;29684;47.722;9.388;2022-08-14T13:36:19;29.10;81.90
8662;DHT22;29684;47.722;9.388;2022-08-14T13:39:04;29.50;82.60
8662;DHT22;29684;47.722;9.388;2022-08-14T13:41:49;29.90;81.20
8662;DHT22;29684;47.722;9.388;2022-08-14T13:44:34;30.60;81.20
8662;DHT22;29684;47.722;9.388;2022-08-14T13:47:23;30.80;79.20
8662;DHT22;29684;47.722;9.388;2022-08-14T13:50:11;30.50;79.80
8662;DHT22;29684;47.722;9.388;2022-08-14T13:52:58;30.30;80.30
8662;DHT22;29684;47.722;9.388;2022-08-14T13:55:46;29.60;79.90
8662;DHT22;29684;47.722;9.388;2022-08-14T13:58:33;29.50;79.10
8662;DHT22;29684;47.722;9.388;2022-08-14T14:01:19;29.40;79.10
8662;DHT22;29684;47.722;9.388;2022-08-14T14:04:04;29.40;78.40
8662;DHT22;29684;47.722;9.388;2022-08-14T14:06:50;29.20;79.30
8662;DHT22;29684;47.722;9.388;2022-08-14T14:09:35;29.00;78.90
8662;DHT22;29684;47.722;9.388;2022-08-14T14:12:22;29.20;79.90
8662;DHT22;29684;47.722;9.388;2022-08-14T14:15:12;29.70;78.90
8662;DHT22;29684;47.722;9.388;2022-08-14T14:17:58;29.50;78.90
8662;DHT22;29684;47.722;9.388;2022-08-14T14:20:43;29.40;79.50
8662;DHT22;29684;47.722;9.388;2022-08-14T14:23:28;29.50;79.80
8662;DHT22;29684;47.722;9.388;2022-08-14T14:26:17;29.50;79.60
8662;DHT22;29684;47.722;9.388;2022-08-14T14:29:02;29.40;79.40
8662;DHT22;29684;47.722;9.388;2022-08-14T14:31:48;29.20;80.60
8662;DHT22;29684;47.722;9.388;2022-08-14T14:34:33;29.40;80.80
8662;DHT22;29684;47.722;9.388;2022-08-14T14:37:20;29.60;81.30
8662;DHT22;29684;47.722;9.388;2022-08-14T14:40:08;29.10;80.80
8662;DHT22;29684;47.722;9.388;2022-08-14T14:42:53;29.10;81.40
8662;DHT22;29684;47.722;9.388;2022-08-14T14:45:39;29.10;81.30
8662;DHT22;29684;47.722;9.388;2022-08-14T14:48:24;29.00;81.80
8662;DHT22;29684;47.722;9.388;2022-08-14T14:51:16;28.90;81.20
8662;DHT22;29684;47.722;9.388;2022-08-14T14:54:01;28.80;81.90
8662;DHT22;29684;47.722;9.388;2022-08-14T14:56:46;29.00;83.00
8662;DHT22;29684;47.722;9.388;2022-08-14T14:59:32;28.90;82.30
8662;DHT22;29684;47.722;9.388;2022-08-14T15:02:31;28.50;82.80
8662;DHT22;29684;47.722;9.388;2022-08-14T15:05:17;28.50;83.70
8662;DHT22;29684;47.722;9.388;2022-08-14T15:08:02;28.60;83.90
8662;DHT22;29684;47.722;9.388;2022-08-14T15:10:48;29.10;84.20
8662;DHT22;29684;47.722;9.388;2022-08-14T15:13:33;29.40;83.20
8662;DHT22;29684;47.722;9.388;2022-08-14T15:16:20;29.60;83.30
8662;DHT22;29684;47.722;9.388;2022-08-14T15:19:04;30.30;82.50
8662;DHT22;29684;47.722;9.388;2022-08-14T15:21:49;31.30;81.60
8662;DHT22;29684;47.722;9.388;2022-08-14T15:24:34;31.80;80.30
8662;DHT22;29684;47.722;9.388;2022-08-14T15:27:18;31.60;80.30
8662;DHT22;29684;47.722;9.388;2022-08-14T15:30:05;31.60;81.20
8662;DHT22;29684;47.722;9.388;2022-08-14T15:32:50;32.30;81.00
8662;DHT22;29684;47.722;9.388;2022-08-14T15:35:35;32.60;79.80
8662;DHT22;29684;47.722;9.388;2022-08-14T15:38:19;33.40;80.10
8662;DHT22;29684;47.722;9.388;2022-08-14T15:41:04;33.70;78.40
8662;DHT22;29684;47.722;9.388;2022-08-14T15:43:49;33.80;77.10
8662;DHT22;29684;47.722;9.388;2022-08-14T15:46:33;33.60;77.90
8662;DHT22;29684;47.722;9.388;2022-08-14T15:49:18;32.80;77.70
8662;DHT22;29684;47.722;9.388;2022-08-14T15:52:03;33.00;78.20
8662;DHT22;29684;47.722;9.388;2022-08-14T15:54:49;33.30;77.00
8662;DHT22;29684;47.722;9.388;2022-08-14T15:57:35;32.50;77.90
8662;DHT22;29684;47.722;9.388;2022-08-14T16:00:19;32.30;77.90
8662;DHT22;29684;47.722;9.388;2022-08-14T16:03:23;32.20;78.90
8662;DHT22;29684;47.722;9.388;2022-08-14T16:06:09;31.50;79.10
8662;DHT22;29684;47.722;9.388;2022-08-14T16:08:54;30.90;79.30
8662;DHT22;29684;47.722;9.388;2022-08-14T16:11:39;30.60;80.50
8662;DHT22;29684;47.722;9.388;2022-08-14T16:14:23;30.10;80.50
8662;DHT22;29684;47.722;9.388;2022-08-14T16:17:11;29.80;80.50
8662;DHT22;29684;47.722;9.388;2022-08-14T16:19:57;29.20;81.60
8662;DHT22;29684;47.722;9.388;2022-08-14T16:22:44;28.90;83.20
8662;DHT22;29684;47.722;9.388;2022-08-14T16:25:32;28.60;82.60
8662;DHT22;29684;47.722;9.388;2022-08-14T16:28:17;28.30;82.50
8662;DHT22;29684;47.722;9.388;2022-08-14T16:31:02;27.90;82.80
8662;DHT22;29684;47.722;9.388;2022-08-14T16:33:49;27.60;83.40
8662;DHT22;29684;47.722;9.388;2022-08-14T16:36:34;27.30;83.90
8662;DHT22;29684;47.722;9.388;2022-08-14T16:39:23;27.00;84.80
8662;DHT22;29684;47.722;9.388;2022-08-14T16:42:08;27.00;85.70
8662;DHT22;29684;47.722;9.388;2022-08-14T16:44:53;26.80;86.30
8662;DHT22;29684;47.722;9.388;2022-08-14T16:47:38;26.70;87.00
8662;DHT22;29684;47.722;9.388;2022-08-14T16:50:22;26.70;87.50
8662;DHT22;29684;47.722;9.388;2022-08-14T16:53:06;26.50;87.60
8662;DHT22;29684;47.722;9.388;2022-08-14T16:56:08;26.40;88.10
8662;DHT22;29684;47.722;9.388;2022-08-14T16:59:17;26.30;88.80
8662;DHT22;29684;47.722;9.388;2022-08-14T17:02:07;26.20;89.40
8662;DHT22;29684;47.722;9.388;2022-08-14T17:04:52;25.90;89.60
8662;DHT22;29684;47.722;9.388;2022-08-14T17:13:34;25.90;90.20
8662;DHT22;29684;47.722;9.388;2022-08-14T17:16:18;25.90;90.30
8662;DHT22;29684;47.722;9.388;2022-08-14T17:19:03;25.90;90.50
8662;DHT22;29684;47.722;9.388;2022-08-14T17:21:50;25.70;90.80
8662;DHT22;29684;47.722;9.388;2022-08-14T17:24:35;25.80;90.90
8662;DHT22;29684;47.722;9.388;2022-08-14T17:27:20;25.80;91.00
8662;DHT22;29684;47.722;9.388;2022-08-14T17:30:05;25.70;91.20
8662;DHT22;29684;47.722;9.388;2022-08-14T17:32:51;25.70;91.10
8662;DHT22;29684;47.722;9.388;2022-08-14T17:35:35;25.60;91.30
8662;DHT22;29684;47.722;9.388;2022-08-14T17:38:19;25.60;91.10
8662;DHT22;29684;47.722;9.388;2022-08-14T17:41:20;25.60;91.30
8662;DHT22;29684;47.722;9.388;2022-08-14T17:44:25;25.60;91.30
8662;DHT22;29684;47.722;9.388;2022-08-14T17:47:13;25.50;91.00
8662;DHT22;29684;47.722;9.388;2022-08-14T17:49:58;25.60;91.00
8662;DHT22;29684;47.722;9.388;2022-08-14T17:52:42;25.60;91.00
8662;DHT22;29684;47.722;9.388;2022-08-14T17:55:27;25.50;91.00
8662;DHT22;29684;47.722;9.388;2022-08-14T17:58:19;25.40;90.50
8662;DHT22;29684;47.722;9.388;2022-08-14T18:01:04;25.30;90.40
8662;DHT22;29684;47.722;9.388;2022-08-14T18:03:50;25.30;90.90